Time;durP1;ratioP1;P1;durP2;ratioP2;P2;SDS_P1;SDS_P2;PMS_P1;PMS_P2;Temp;Humidity;BMP_temperature;BMP_pressure;BME280_temperature;BME280_humidity;BME280_pressure;Samples;Min_cycle;Max_cycle;Signal;HPM_P1;HPM_P2
2021/10/20 00:01:00;;;;;;;11.02;8.27;;;13.10;99.90;;;;;;5006167;28;20791;-75
2021/10/20 00:03:26;;;;;;;11.50;8.57;;;13.10;99.90;;;;;;5000873;28;20739;-79
2021/10/20 00:05:51;;;;;;;8.60;7.03;;;13.10;99.90;;;;;;4998110;28;20442;-78
2021/10/20 00:08:17;;;;;;;8.73;7.50;;;13.10;99.90;;;;;;4987312;28;20404;-79
2021/10/20 00:10:42;;;;;;;11.70;8.70;;;13.00;99.90;;;;;;4993798;28;20487;-79
2021/10/20 00:13:08;;;;;;;10.63;8.53;;;13.00;99.90;;;;;;4976712;28;20412;-81
2021/10/20 00:15:34;;;;;;;11.80;8.33;;;13.00;99.90;;;;;;4979948;28;20387;-80
2021/10/20 00:18:00;;;;;;;10.68;7.80;;;13.00;99.90;;;;;;4979264;28;20816;-81
2021/10/20 00:20:27;;;;;;;11.10;8.07;;;13.00;99.90;;;;;;4980189;28;20389;-80
2021/10/20 00:22:54;;;;;;;9.27;7.60;;;13.00;99.90;;;;;;4979347;28;20668;-80
2021/10/20 00:25:19;;;;;;;11.30;7.90;;;13.00;99.90;;;;;;4979756;28;20501;-77
2021/10/20 00:27:46;;;;;;;10.95;7.45;;;13.00;99.90;;;;;;4977888;28;20420;-78
2021/10/20 00:30:15;;;;;;;11.73;8.43;;;12.90;99.90;;;;;;4979532;28;20475;-79
2021/10/20 00:32:40;;;;;;;10.27;7.50;;;12.90;99.90;;;;;;4980255;28;20939;-79
2021/10/20 00:35:07;;;;;;;13.63;7.63;;;12.90;99.90;;;;;;4982707;28;20420;-79
2021/10/20 00:37:32;;;;;;;11.75;7.85;;;13.00;99.90;;;;;;5011051;28;20403;-79
2021/10/20 00:39:58;;;;;;;9.40;6.87;;;13.00;99.90;;;;;;4978726;28;20407;-79
2021/10/20 00:42:24;;;;;;;8.60;6.80;;;13.00;99.90;;;;;;4979879;28;20392;-77
2021/10/20 00:44:55;;;;;;;15.47;8.10;;;13.00;99.90;;;;;;5011156;28;20829;-79
2021/10/20 00:47:22;;;;;;;10.18;7.20;;;13.00;99.90;;;;;;4990070;28;20412;-75
2021/10/20 00:49:49;;;;;;;14.98;7.45;;;13.00;99.90;;;;;;4990815;28;20794;-75
2021/10/20 00:52:16;;;;;;;12.48;7.25;;;13.00;99.90;;;;;;4987319;28;21086;-78
2021/10/20 00:54:42;;;;;;;12.15;7.50;;;13.00;99.90;;;;;;4987223;28;20417;-75
2021/10/20 00:57:10;;;;;;;9.65;7.13;;;13.00;99.90;;;;;;5011138;28;20379;-76
2021/10/20 00:59:37;;;;;;;10.75;7.60;;;13.00;99.90;;;;;;5007596;28;20387;-79
2021/10/20 01:02:03;;;;;;;8.07;6.90;;;12.90;99.90;;;;;;4996532;28;21174;-78
2021/10/20 01:04:30;;;;;;;14.68;7.07;;;13.00;99.90;;;;;;4983743;28;20818;-77
2021/10/20 01:06:56;;;;;;;14.27;7.28;;;12.90;99.90;;;;;;4978086;28;20896;-79
2021/10/20 01:09:22;;;;;;;9.45;7.25;;;12.90;99.90;;;;;;4978782;28;20415;-78
2021/10/20 01:11:48;;;;;;;10.65;7.03;;;12.90;99.90;;;;;;4979552;28;20385;-79
2021/10/20 01:14:14;;;;;;;12.43;7.30;;;12.90;99.90;;;;;;4977825;28;20411;-79
2021/10/20 01:16:41;;;;;;;9.63;6.70;;;12.90;99.90;;;;;;4973433;28;20406;-78
2021/10/20 01:19:07;;;;;;;9.85;7.50;;;12.90;99.90;;;;;;4958993;28;20393;-77
2021/10/20 01:21:34;;;;;;;10.80;7.85;;;13.00;99.90;;;;;;4962577;28;20382;-79
2021/10/20 01:24:00;;;;;;;12.13;7.43;;;12.90;99.90;;;;;;4980841;28;20385;-76
2021/10/20 01:26:27;;;;;;;8.30;7.20;;;13.00;99.90;;;;;;4993456;28;20416;-77
2021/10/20 01:28:52;;;;;;;9.50;7.10;;;13.00;99.90;;;;;;4986910;28;20391;-76
2021/10/20 01:31:18;;;;;;;11.17;7.50;;;13.00;99.80;;;;;;4985487;28;20483;-77
2021/10/20 01:33:44;;;;;;;11.77;6.93;;;13.00;99.90;;;;;;4986306;28;20471;-78
2021/10/20 01:36:10;;;;;;;11.20;7.13;;;12.90;99.90;;;;;;4987747;28;20460;-77
2021/10/20 01:38:36;;;;;;;11.02;7.55;;;12.90;99.90;;;;;;4987521;28;20395;-77
2021/10/20 01:41:01;;;;;;;12.88;7.88;;;12.80;99.90;;;;;;4988597;28;20404;-75
2021/10/20 01:43:43;;;;;;;12.70;7.80;;;12.80;99.90;;;;;;4987958;28;20411;-76
2021/10/20 01:46:10;;;;;;;13.02;7.60;;;12.80;99.90;;;;;;4987084;28;20462;-74
2021/10/20 01:48:36;;;;;;;14.13;8.00;;;12.90;99.90;;;;;;4987561;28;20408;-75
2021/10/20 01:51:02;;;;;;;12.00;7.60;;;12.80;99.90;;;;;;4985044;28;20370;-76
2021/10/20 01:53:28;;;;;;;9.87;7.20;;;12.80;99.90;;;;;;4984691;28;20415;-78
2021/10/20 01:55:54;;;;;;;13.67;8.03;;;12.80;99.90;;;;;;5002239;28;20397;-79
2021/10/20 01:58:19;;;;;;;10.73;7.50;;;12.80;99.90;;;;;;5003627;28;20685;-78
2021/10/20 02:00:45;;;;;;;12.43;7.50;;;12.80;99.90;;;;;;5002198;28;20394;-76
2021/10/20 02:03:11;;;;;;;10.40;7.32;;;12.80;99.90;;;;;;4986903;28;20825;-75
2021/10/20 02:05:37;;;;;;;10.75;7.50;;;12.80;99.90;;;;;;4984395;28;20416;-80
2021/10/20 02:08:03;;;;;;;11.20;8.00;;;12.70;99.90;;;;;;4978597;28;20388;-78
2021/10/20 02:10:29;;;;;;;12.50;7.47;;;12.80;99.90;;;;;;4978581;28;20392;-79
2021/10/20 02:12:55;;;;;;;12.27;8.10;;;12.70;99.90;;;;;;4965025;28;20780;-78
2021/10/20 02:15:21;;;;;;;16.77;8.40;;;12.70;99.90;;;;;;4958264;28;20401;-78
2021/10/20 02:17:46;;;;;;;12.30;7.80;;;12.70;99.90;;;;;;4975259;28;20779;-78
2021/10/20 02:20:14;;;;;;;13.38;7.85;;;12.60;99.90;;;;;;4958271;28;20393;-78
2021/10/20 02:22:43;;;;;;;12.25;8.10;;;12.60;99.90;;;;;;4984245;28;20400;-79
2021/10/20 02:25:09;;;;;;;10.65;7.80;;;12.60;99.90;;;;;;4976877;28;20408;-80
2021/10/20 02:27:35;;;;;;;12.20;7.70;;;12.60;99.90;;;;;;4976438;28;20453;-77
2021/10/20 02:30:02;;;;;;;14.23;8.32;;;12.60;99.90;;;;;;4975852;28;21077;-78
2021/10/20 02:32:27;;;;;;;12.47;9.03;;;12.60;99.90;;;;;;4978140;28;20991;-78
2021/10/20 02:34:53;;;;;;;13.70;8.30;;;12.60;99.90;;;;;;4977114;28;20393;-78
2021/10/20 02:37:18;;;;;;;12.50;8.00;;;12.60;99.90;;;;;;4977561;28;20427;-80
2021/10/20 02:39:44;;;;;;;11.43;9.37;;;12.50;99.90;;;;;;4976519;28;20876;-78
2021/10/20 02:42:09;;;;;;;14.57;8.85;;;12.50;99.90;;;;;;4974292;28;20408;-78
2021/10/20 02:44:35;;;;;;;11.77;8.60;;;12.50;99.90;;;;;;4974818;28;20742;-79
2021/10/20 02:47:01;;;;;;;13.48;8.93;;;12.50;99.90;;;;;;4974926;28;20455;-80
2021/10/20 02:49:26;;;;;;;13.53;8.50;;;12.50;99.90;;;;;;4976084;28;20392;-80
2021/10/20 02:51:52;;;;;;;11.67;8.67;;;12.60;99.90;;;;;;4978070;28;20450;-78
2021/10/20 02:54:19;;;;;;;12.10;8.30;;;12.50;99.90;;;;;;4978127;28;20402;-77
2021/10/20 02:56:46;;;;;;;13.15;8.45;;;12.60;99.90;;;;;;4998634;28;20405;-77
2021/10/20 02:59:12;;;;;;;12.57;9.00;;;12.50;99.90;;;;;;5008922;28;20412;-77
2021/10/20 03:01:37;;;;;;;10.38;8.07;;;12.60;99.90;;;;;;4993799;28;20409;-77
2021/10/20 03:04:04;;;;;;;11.27;8.35;;;12.60;99.90;;;;;;4984255;28;20467;-77
2021/10/20 03:06:29;;;;;;;12.70;8.70;;;12.50;99.90;;;;;;4989304;28;20419;-76
2021/10/20 03:08:55;;;;;;;13.70;8.75;;;12.60;99.90;;;;;;4977613;28;20767;-77
2021/10/20 03:11:20;;;;;;;11.60;8.40;;;12.60;99.90;;;;;;4972552;28;20459;-77
2021/10/20 03:13:46;;;;;;;15.13;8.90;;;12.50;99.90;;;;;;4971170;28;20392;-77
2021/10/20 03:16:12;;;;;;;11.97;8.40;;;12.50;99.90;;;;;;5003172;28;20483;-77
2021/10/20 03:18:37;;;;;;;11.27;8.67;;;12.60;99.90;;;;;;4972318;28;20897;-77
2021/10/20 03:21:03;;;;;;;13.97;8.30;;;12.60;99.80;;;;;;5004790;28;20396;-77
2021/10/20 03:23:29;;;;;;;11.67;8.27;;;12.60;99.90;;;;;;4973521;28;20425;-77
2021/10/20 03:25:54;;;;;;;12.43;8.90;;;12.60;99.70;;;;;;4989478;28;20412;-77
2021/10/20 03:28:20;;;;;;;15.33;9.00;;;12.60;99.90;;;;;;4989613;28;20530;-76
2021/10/20 03:30:45;;;;;;;10.40;8.25;;;12.60;99.90;;;;;;4976661;28;20751;-77
2021/10/20 03:33:11;;;;;;;14.80;9.18;;;12.60;99.90;;;;;;4972049;28;20865;-77
2021/10/20 03:35:37;;;;;;;14.85;8.18;;;12.60;99.90;;;;;;4972799;28;20414;-77
2021/10/20 03:38:05;;;;;;;12.85;8.68;;;12.60;99.90;;;;;;4972752;28;20873;-78
2021/10/20 03:40:31;;;;;;;12.55;8.40;;;12.60;99.90;;;;;;4989847;28;20380;-77
2021/10/20 03:42:57;;;;;;;11.82;8.60;;;12.60;98.90;;;;;;5014247;28;20473;-78
2021/10/20 03:45:22;;;;;;;10.30;8.00;;;12.60;99.20;;;;;;4971215;28;20441;-78
2021/10/20 03:47:48;;;;;;;11.10;8.40;;;12.70;99.20;;;;;;4959178;28;20390;-78
2021/10/20 03:50:13;;;;;;;14.67;8.40;;;12.70;98.70;;;;;;4951389;28;20398;-78
2021/10/20 03:52:39;;;;;;;15.33;8.90;;;12.70;97.50;;;;;;4957178;28;20407;-78
2021/10/20 03:55:05;;;;;;;12.60;8.70;;;12.70;97.40;;;;;;4982481;28;20463;-78
2021/10/20 03:57:36;;;;;;;10.75;7.40;;;12.70;96.70;;;;;;4998993;28;20437;-77
2021/10/20 04:00:03;;;;;;;11.60;7.70;;;12.70;97.00;;;;;;4994650;28;20912;-77
2021/10/20 04:02:29;;;;;;;9.35;7.72;;;12.70;97.60;;;;;;4986495;28;20601;-78
2021/10/20 04:04:54;;;;;;;11.17;7.90;;;12.70;97.00;;;;;;4971915;28;20725;-77
2021/10/20 04:07:20;;;;;;;13.70;8.10;;;12.70;97.00;;;;;;4974179;28;20396;-76
2021/10/20 04:09:45;;;;;;;10.65;8.10;;;12.80;94.50;;;;;;4972065;28;20458;-77
2021/10/20 04:12:11;;;;;;;13.00;8.20;;;12.80;94.40;;;;;;4970424;28;20392;-78
2021/10/20 04:14:36;;;;;;;10.60;8.10;;;12.80;94.20;;;;;;4974476;28;20906;-77
2021/10/20 04:17:03;;;;;;;11.30;8.10;;;12.80;93.80;;;;;;4974684;28;20406;-78
2021/10/20 04:19:28;;;;;;;13.40;8.32;;;12.80;93.20;;;;;;4976002;28;20387;-77
2021/10/20 04:21:54;;;;;;;12.97;8.50;;;12.80;93.70;;;;;;4973897;28;20442;-78
2021/10/20 04:24:19;;;;;;;12.53;7.60;;;12.80;94.10;;;;;;4973756;28;20511;-77
2021/10/20 04:26:45;;;;;;;12.20;8.43;;;12.80;93.20;;;;;;4974288;28;20502;-78
2021/10/20 04:29:11;;;;;;;13.67;7.80;;;12.80;93.40;;;;;;4976173;28;20392;-79
2021/10/20 04:31:36;;;;;;;13.30;8.00;;;12.80;93.30;;;;;;4977960;28;20781;-77
2021/10/20 04:34:02;;;;;;;15.40;7.47;;;12.80;92.10;;;;;;4977761;28;20751;-77
2021/10/20 04:36:28;;;;;;;10.43;7.65;;;12.80;92.30;;;;;;4975178;28;20395;-76
2021/10/20 04:38:53;;;;;;;11.73;8.00;;;12.80;91.20;;;;;;4974187;28;20761;-77
2021/10/20 04:41:19;;;;;;;11.38;7.90;;;12.90;91.40;;;;;;4973961;28;20404;-77
2021/10/20 04:43:44;;;;;;;8.33;7.30;;;12.80;91.10;;;;;;4972285;28;20813;-77
2021/10/20 04:46:10;;;;;;;10.70;7.80;;;12.90;89.40;;;;;;4971926;28;20485;-77
2021/10/20 04:48:36;;;;;;;12.93;7.53;;;12.90;88.70;;;;;;4972746;28;20514;-77
2021/10/20 04:51:01;;;;;;;9.77;7.30;;;12.90;88.90;;;;;;4972391;28;20389;-77
2021/10/20 04:53:27;;;;;;;10.43;7.83;;;13.00;87.20;;;;;;4972263;28;20439;-77
2021/10/20 04:55:52;;;;;;;12.98;8.15;;;12.90;88.10;;;;;;4989031;28;20902;-78
2021/10/20 04:58:18;;;;;;;11.35;7.30;;;12.90;88.70;;;;;;4993621;28;20840;-77
2021/10/20 05:00:43;;;;;;;12.00;8.30;;;13.00;88.00;;;;;;4993511;28;20458;-78
2021/10/20 05:03:09;;;;;;;11.80;7.90;;;13.00;87.20;;;;;;4985532;28;20806;-78
2021/10/20 05:05:34;;;;;;;11.67;8.00;;;13.00;87.50;;;;;;4986240;28;20731;-77
2021/10/20 05:08:00;;;;;;;9.80;7.50;;;13.00;85.80;;;;;;4989442;28;20408;-77
2021/10/20 05:10:27;;;;;;;11.13;7.88;;;13.00;86.70;;;;;;4979255;28;20451;-77
2021/10/20 05:12:56;;;;;;;9.63;7.47;;;13.00;88.00;;;;;;4972969;28;20397;-76
2021/10/20 05:15:22;;;;;;;11.82;7.28;;;12.90;88.10;;;;;;4972120;28;20901;-76
2021/10/20 05:17:48;;;;;;;13.20;8.07;;;13.00;86.90;;;;;;4972007;28;20499;-78
2021/10/20 05:20:41;;;;;;;9.70;7.70;;;13.00;87.50;;;;;;4971809;28;20479;-78
2021/10/20 05:23:10;;;;;;;15.00;7.80;;;12.90;88.30;;;;;;4970936;28;20741;-77
2021/10/20 05:25:36;;;;;;;14.20;8.40;;;12.90;87.80;;;;;;4971496;28;20485;-76
2021/10/20 05:28:01;;;;;;;12.10;7.80;;;12.90;87.70;;;;;;4971716;28;20402;-76
2021/10/20 05:30:27;;;;;;;11.27;7.87;;;12.90;87.50;;;;;;4970810;28;20901;-76
2021/10/20 05:32:52;;;;;;;13.37;8.10;;;13.00;86.30;;;;;;4970945;28;20393;-76
2021/10/20 05:35:18;;;;;;;12.90;8.52;;;13.00;86.40;;;;;;4971390;28;20392;-76
2021/10/20 05:37:50;;;;;;;11.70;7.57;;;13.10;86.90;;;;;;4970606;28;20399;-76
2021/10/20 05:40:16;;;;;;;17.27;8.05;;;13.10;85.00;;;;;;4971514;28;20762;-77
2021/10/20 05:42:42;;;;;;;13.00;8.80;;;13.10;86.00;;;;;;4970867;28;20523;-77
2021/10/20 05:45:08;;;;;;;13.75;7.60;;;13.10;85.70;;;;;;4978336;28;20507;-75
2021/10/20 05:47:34;;;;;;;11.65;7.40;;;13.20;85.90;;;;;;4970843;28;20560;-76
2021/10/20 05:49:59;;;;;;;11.20;7.80;;;13.20;84.00;;;;;;4970083;28;21419;-76
2021/10/20 05:52:25;;;;;;;12.60;8.47;;;13.20;84.90;;;;;;4969921;28;20765;-76
2021/10/20 05:54:51;;;;;;;15.25;8.15;;;13.30;84.00;;;;;;4962485;28;20538;-75
2021/10/20 05:57:16;;;;;;;14.30;8.52;;;13.30;82.30;;;;;;4954104;28;20430;-76
2021/10/20 05:59:42;;;;;;;11.20;7.93;;;13.40;82.70;;;;;;4967699;28;20384;-76
2021/10/20 06:02:11;;;;;;;11.33;8.10;;;13.50;81.30;;;;;;4970864;28;20946;-76
2021/10/20 06:04:36;;;;;;;12.40;8.38;;;13.50;79.90;;;;;;4969499;28;20400;-76
2021/10/20 06:07:02;;;;;;;13.57;7.20;;;13.50;79.80;;;;;;4971542;28;20456;-77
2021/10/20 06:09:28;;;;;;;10.13;7.60;;;13.50;78.70;;;;;;4977677;28;20835;-77
2021/10/20 06:11:54;;;;;;;15.90;8.70;;;13.60;78.40;;;;;;4969177;28;20451;-77
2021/10/20 06:14:19;;;;;;;13.60;7.53;;;13.70;77.10;;;;;;4970437;28;20443;-77
2021/10/20 06:16:45;;;;;;;12.17;7.70;;;13.70;75.60;;;;;;4965610;28;20418;-77
2021/10/20 06:19:10;;;;;;;10.83;8.00;;;13.80;74.90;;;;;;4986247;28;20404;-75
2021/10/20 06:21:37;;;;;;;14.90;8.30;;;13.80;75.90;;;;;;4965357;28;20436;-77
2021/10/20 06:24:02;;;;;;;16.42;8.10;;;13.90;75.40;;;;;;4967604;28;20412;-76
2021/10/20 06:26:28;;;;;;;12.20;7.53;;;13.90;73.00;;;;;;4973475;28;20902;-77
2021/10/20 06:28:55;;;;;;;9.13;7.10;;;14.00;70.90;;;;;;4973235;28;20399;-77
2021/10/20 06:31:21;;;;;;;10.43;7.20;;;14.00;72.00;;;;;;4974117;28;20389;-77
2021/10/20 06:33:46;;;;;;;13.25;8.20;;;14.10;71.00;;;;;;4969225;28;20797;-76
2021/10/20 06:36:22;;;;;;;11.80;7.90;;;14.10;67.90;;;;;;4970417;28;20416;-76
2021/10/20 06:38:48;;;;;;;11.80;7.85;;;14.20;66.60;;;;;;4972293;28;20408;-75
2021/10/20 06:41:14;;;;;;;13.13;7.90;;;14.20;67.60;;;;;;4955735;28;20402;-75
2021/10/20 06:43:39;;;;;;;13.67;7.57;;;14.10;67.60;;;;;;4966309;28;21010;-75
2021/10/20 06:46:05;;;;;;;11.40;7.60;;;14.10;68.50;;;;;;4969965;28;20507;-76
2021/10/20 06:48:30;;;;;;;13.20;8.67;;;14.10;68.40;;;;;;4973350;28;20396;-78
2021/10/20 06:50:56;;;;;;;13.77;8.90;;;14.20;67.00;;;;;;4974193;28;20443;-77
2021/10/20 06:53:23;;;;;;;19.08;9.15;;;14.30;67.10;;;;;;4970979;28;20416;-76
2021/10/20 06:55:49;;;;;;;152.83;97.93;;;14.30;65.20;;;;;;4969228;28;20411;-77
2021/10/20 06:58:14;;;;;;;35.47;19.37;;;14.50;65.50;;;;;;4971456;28;20562;-76
2021/10/20 07:00:40;;;;;;;54.30;34.70;;;14.70;63.60;;;;;;4971080;28;20418;-75
2021/10/20 07:03:05;;;;;;;42.75;27.25;;;14.80;61.20;;;;;;4971063;28;20388;-77
2021/10/20 07:05:31;;;;;;;57.80;37.87;;;14.90;59.90;;;;;;4970377;28;20419;-77
2021/10/20 07:07:57;;;;;;;102.53;66.63;;;15.00;58.80;;;;;;4972024;28;20396;-77
2021/10/20 07:10:22;;;;;;;10.57;7.68;;;15.20;57.50;;;;;;4969882;28;20487;-75
2021/10/20 07:12:49;;;;;;;13.35;7.60;;;15.20;56.20;;;;;;4971060;28;20415;-76
2021/10/20 07:15:14;;;;;;;13.65;7.85;;;15.30;54.90;;;;;;4971038;28;20427;-76
2021/10/20 07:17:40;;;;;;;9.90;7.00;;;15.40;54.70;;;;;;4969980;28;20775;-77
2021/10/20 07:20:07;;;;;;;8.90;6.60;;;15.40;54.80;;;;;;4971755;28;20388;-77
2021/10/20 07:22:38;;;;;;;16.38;7.75;;;15.50;54.50;;;;;;4969553;28;20472;-77
2021/10/20 07:25:04;;;;;;;11.27;6.82;;;15.40;54.90;;;;;;4975809;28;20423;-77
2021/10/20 07:27:31;;;;;;;14.40;7.35;;;15.60;53.30;;;;;;4970754;28;20403;-77
2021/10/20 07:29:57;;;;;;;12.65;6.57;;;15.60;52.10;;;;;;4970797;28;20471;-77
2021/10/20 07:32:22;;;;;;;11.75;7.10;;;15.70;51.60;;;;;;4971852;28;20945;-77
2021/10/20 07:34:48;;;;;;;11.00;7.10;;;15.70;51.90;;;;;;4971683;28;20869;-77
2021/10/20 07:37:13;;;;;;;9.60;6.80;;;15.80;51.70;;;;;;4972477;28;20396;-78
2021/10/20 07:39:39;;;;;;;10.93;6.97;;;15.90;51.40;;;;;;4972463;28;20400;-77
2021/10/20 07:42:05;;;;;;;13.25;7.10;;;16.00;50.60;;;;;;4971815;28;20530;-77
2021/10/20 07:44:31;;;;;;;10.82;6.80;;;16.00;49.60;;;;;;4971634;28;20393;-77
2021/10/20 07:46:56;;;;;;;12.18;7.05;;;15.90;50.30;;;;;;4970552;28;20408;-77
2021/10/20 07:49:22;;;;;;;10.98;6.63;;;16.10;49.90;;;;;;4975300;28;20917;-75
2021/10/20 07:51:50;;;;;;;9.82;6.60;;;16.20;49.80;;;;;;4975858;28;20388;-75
2021/10/20 07:54:15;;;;;;;9.73;6.80;;;16.30;48.50;;;;;;4982643;28;20398;-77
2021/10/20 07:56:43;;;;;;;11.10;7.00;;;16.30;48.40;;;;;;5003242;28;20420;-76
2021/10/20 07:59:09;;;;;;;11.60;7.20;;;16.30;47.00;;;;;;4987447;28;20509;-76
2021/10/20 08:01:35;;;;;;;12.90;8.20;;;16.30;47.70;;;;;;4977627;28;20435;-77
2021/10/20 08:04:00;;;;;;;25.13;9.60;;;16.30;49.00;;;;;;4974002;28;20423;-77
2021/10/20 08:06:26;;;;;;;14.77;7.30;;;16.40;47.90;;;;;;4974379;28;20432;-76
2021/10/20 08:08:52;;;;;;;13.13;7.20;;;16.40;48.00;;;;;;4975972;28;20427;-76
2021/10/20 08:11:17;;;;;;;11.90;7.63;;;16.40;48.10;;;;;;4977301;28;20395;-77
2021/10/20 08:13:43;;;;;;;11.30;7.60;;;16.30;47.70;;;;;;4975244;28;20388;-76
2021/10/20 08:16:09;;;;;;;13.83;7.87;;;16.20;49.00;;;;;;4975786;28;20904;-76
2021/10/20 08:18:34;;;;;;;12.43;7.60;;;16.20;49.70;;;;;;4985432;28;20405;-77
2021/10/20 08:21:00;;;;;;;10.80;7.50;;;16.20;50.10;;;;;;4985629;28;20419;-76
2021/10/20 08:23:26;;;;;;;10.70;7.30;;;16.30;50.50;;;;;;4983253;28;20396;-77
2021/10/20 08:25:52;;;;;;;9.57;7.00;;;16.30;50.40;;;;;;4977069;28;20498;-78
2021/10/20 08:28:18;;;;;;;13.40;8.30;;;16.30;50.60;;;;;;4974515;28;20715;-77
2021/10/20 08:30:43;;;;;;;13.57;7.70;;;16.40;50.40;;;;;;4974647;28;20648;-76
2021/10/20 08:33:09;;;;;;;11.35;8.00;;;16.50;49.90;;;;;;4980314;28;20419;-75
2021/10/20 08:35:37;;;;;;;9.60;7.50;;;16.30;50.50;;;;;;4986376;28;20384;-76
2021/10/20 08:38:04;;;;;;;14.05;8.00;;;16.30;51.10;;;;;;4983210;28;20388;-75
2021/10/20 08:40:34;;;;;;;12.30;9.13;;;16.50;50.70;;;;;;5010498;28;20494;-77
2021/10/20 08:43:00;;;;;;;11.77;8.05;;;16.50;50.70;;;;;;4972236;28;20435;-77
2021/10/20 08:45:26;;;;;;;12.52;8.20;;;16.50;50.10;;;;;;4975529;28;20408;-77
2021/10/20 08:47:52;;;;;;;13.07;7.80;;;16.70;49.90;;;;;;4975339;28;20446;-77
2021/10/20 08:50:24;;;;;;;11.77;8.45;;;16.80;49.00;;;;;;4973579;28;20403;-77
2021/10/20 08:52:51;;;;;;;10.43;8.25;;;16.90;48.00;;;;;;4975021;28;20381;-77
2021/10/20 08:55:17;;;;;;;12.50;8.13;;;17.00;47.20;;;;;;4987740;28;20529;-77
2021/10/20 08:57:44;;;;;;;13.35;8.52;;;17.00;46.10;;;;;;4998664;28;20394;-77
2021/10/20 09:00:11;;;;;;;11.82;7.90;;;17.10;46.60;;;;;;4977332;28;20765;-75
2021/10/20 09:02:40;;;;;;;13.10;7.88;;;17.10;46.90;;;;;;4974019;28;20403;-76
2021/10/20 09:05:15;;;;;;;12.90;7.50;;;17.10;46.20;;;;;;4975099;28;20509;-76
2021/10/20 09:07:42;;;;;;;13.55;7.68;;;17.20;46.00;;;;;;4972981;28;20416;-76
2021/10/20 09:10:08;;;;;;;12.97;7.10;;;17.30;44.80;;;;;;4980101;28;20404;-77
2021/10/20 09:12:43;;;;;;;12.75;8.07;;;17.30;44.20;;;;;;4972690;28;20424;-75
2021/10/20 09:15:19;;;;;;;11.98;7.70;;;17.40;44.40;;;;;;4972861;28;20401;-76
2021/10/20 09:17:50;;;;;;;18.92;8.50;;;17.30;44.80;;;;;;4981335;28;20391;-77
2021/10/20 09:20:21;;;;;;;13.80;7.53;;;17.40;44.00;;;;;;4975844;28;20471;-77
2021/10/20 09:22:54;;;;;;;11.35;6.90;;;17.50;43.70;;;;;;4972745;28;20392;-77
2021/10/20 09:25:19;;;;;;;12.37;7.30;;;17.50;42.90;;;;;;4973301;28;20455;-77
2021/10/20 09:27:45;;;;;;;12.50;7.60;;;17.50;43.00;;;;;;4974068;28;20870;-77
2021/10/20 09:30:13;;;;;;;14.73;7.05;;;17.50;42.90;;;;;;4976055;28;20418;-76
2021/10/20 09:32:39;;;;;;;12.50;6.72;;;17.50;42.40;;;;;;4972695;28;20827;-77
2021/10/20 09:35:06;;;;;;;10.57;6.50;;;17.60;42.60;;;;;;4973514;28;20400;-78
2021/10/20 09:37:33;;;;;;;11.07;7.13;;;17.50;41.50;;;;;;4973704;28;20438;-76
2021/10/20 09:40:07;;;;;;;15.18;7.85;;;17.60;41.70;;;;;;4973306;28;20727;-77
2021/10/20 09:42:47;;;;;;;11.45;7.60;;;17.50;42.50;;;;;;4973211;28;20412;-75
2021/10/20 09:45:14;;;;;;;10.20;6.73;;;17.50;42.80;;;;;;4971765;28;20436;-77
2021/10/20 09:47:40;;;;;;;9.70;7.03;;;17.50;42.20;;;;;;4973356;28;20435;-77
2021/10/20 09:50:07;;;;;;;14.80;6.95;;;17.40;41.90;;;;;;4972954;28;20396;-77
2021/10/20 09:52:48;;;;;;;11.98;6.53;;;17.50;41.10;;;;;;4973605;28;20396;-76
2021/10/20 09:55:34;;;;;;;8.20;6.47;;;17.70;40.90;;;;;;4973249;28;20396;-76
2021/10/20 09:58:10;;;;;;;9.07;6.82;;;17.80;39.90;;;;;;4973564;28;20515;-75
2021/10/20 10:00:35;;;;;;;11.97;6.40;;;17.90;39.80;;;;;;4972823;28;21086;-76
2021/10/20 10:03:02;;;;;;;10.87;6.90;;;17.90;39.70;;;;;;4972425;28;20475;-77
2021/10/20 10:05:29;;;;;;;11.27;6.70;;;17.80;39.90;;;;;;4970739;28;20468;-76
2021/10/20 10:07:55;;;;;;;10.55;7.00;;;17.70;40.00;;;;;;4972479;28;20727;-77
2021/10/20 10:10:21;;;;;;;10.13;6.78;;;17.70;40.30;;;;;;4972572;28;20400;-77
2021/10/20 10:12:48;;;;;;;11.18;7.32;;;17.70;40.50;;;;;;4972719;28;20505;-77
2021/10/20 10:15:16;;;;;;;10.82;6.72;;;17.70;41.30;;;;;;4972032;28;20483;-77
2021/10/20 10:17:43;;;;;;;11.82;7.00;;;17.60;39.90;;;;;;4972466;28;20847;-75
2021/10/20 10:20:11;;;;;;;11.10;6.55;;;17.50;40.10;;;;;;4972031;28;20404;-77
2021/10/20 10:22:49;;;;;;;10.88;6.10;;;17.50;40.50;;;;;;4972539;28;20475;-77
2021/10/20 10:25:14;;;;;;;8.05;6.50;;;17.50;40.00;;;;;;4972305;28;20866;-77
2021/10/20 10:28:03;;;;;;;11.48;6.43;;;17.70;40.00;;;;;;4972073;28;20422;-76
2021/10/20 10:30:32;;;;;;;11.10;6.93;;;17.60;40.30;;;;;;4971580;28;20399;-76
2021/10/20 10:33:00;;;;;;;9.30;6.88;;;17.60;41.20;;;;;;4972496;28;20380;-78
2021/10/20 10:35:34;;;;;;;16.83;6.63;;;17.50;41.00;;;;;;4974491;28;20403;-76
2021/10/20 10:38:04;;;;;;;10.40;7.10;;;17.60;41.20;;;;;;4973944;28;20410;-76
2021/10/20 10:40:32;;;;;;;12.63;6.68;;;17.50;41.60;;;;;;4972961;28;20408;-75
2021/10/20 10:43:07;;;;;;;13.43;7.60;;;17.50;41.50;;;;;;4970536;28;20435;-74
2021/10/20 10:45:34;;;;;;;9.48;6.68;;;17.60;41.10;;;;;;4970953;28;20415;-75
2021/10/20 10:48:04;;;;;;;14.25;8.25;;;17.60;41.40;;;;;;4970388;28;20889;-73
2021/10/20 10:50:41;;;;;;;10.13;6.97;;;17.70;41.50;;;;;;4969587;28;20450;-74
2021/10/20 10:53:08;;;;;;;11.63;6.70;;;17.70;41.90;;;;;;4969407;28;20730;-74
2021/10/20 10:55:34;;;;;;;7.55;6.55;;;17.60;42.10;;;;;;4983770;28;20473;-74
2021/10/20 10:58:13;;;;;;;10.45;7.30;;;17.70;41.60;;;;;;4989718;28;20880;-73
2021/10/20 11:00:45;;;;;;;11.60;7.07;;;17.70;42.20;;;;;;4973782;28;20404;-76
2021/10/20 11:03:10;;;;;;;10.90;7.00;;;17.60;42.50;;;;;;4969312;28;20401;-74
2021/10/20 11:05:37;;;;;;;14.00;7.10;;;17.50;43.50;;;;;;4970200;28;20920;-74
2021/10/20 11:08:12;;;;;;;10.27;7.65;;;17.50;44.10;;;;;;4969482;28;20869;-75
2021/10/20 11:10:40;;;;;;;15.57;7.47;;;17.50;44.50;;;;;;4970040;28;20404;-75
2021/10/20 11:13:06;;;;;;;10.98;7.40;;;17.40;45.10;;;;;;4964818;28;20780;-77
2021/10/20 11:15:33;;;;;;;11.65;7.65;;;17.40;45.80;;;;;;4966080;28;20400;-74
2021/10/20 11:18:00;;;;;;;17.35;7.50;;;17.30;46.50;;;;;;4953547;28;20531;-75
2021/10/20 11:20:28;;;;;;;15.77;7.90;;;17.30;47.60;;;;;;4969248;28;20426;-76
2021/10/20 11:22:56;;;;;;;11.80;7.90;;;17.30;48.90;;;;;;4969576;28;20408;-74
2021/10/20 11:25:24;;;;;;;13.25;8.93;;;17.30;49.90;;;;;;4967684;28;20585;-75
2021/10/20 11:27:55;;;;;;;19.90;8.95;;;17.30;50.30;;;;;;4974912;28;20403;-76
2021/10/20 11:30:25;;;;;;;13.13;8.00;;;17.40;50.50;;;;;;4976093;28;20404;-77
2021/10/20 11:32:50;;;;;;;11.77;7.88;;;17.60;49.50;;;;;;4975500;28;20395;-76
2021/10/20 11:35:22;;;;;;;18.23;8.30;;;17.70;48.70;;;;;;4977390;28;20404;-76
2021/10/20 11:38:00;;;;;;;13.65;6.80;;;17.80;47.90;;;;;;4977915;28;20396;-77
2021/10/20 11:40:30;;;;;;;14.20;7.75;;;17.90;45.80;;;;;;4962840;28;20396;-76
2021/10/20 11:42:56;;;;;;;11.73;7.05;;;18.00;45.30;;;;;;4973840;28;20384;-73
2021/10/20 11:45:22;;;;;;;14.00;7.27;;;18.00;45.60;;;;;;4972295;28;20424;-74
2021/10/20 11:47:47;;;;;;;12.57;7.30;;;18.00;44.80;;;;;;4972366;28;20427;-73
2021/10/20 11:50:16;;;;;;;12.93;7.50;;;18.10;44.60;;;;;;4973626;28;20545;-75
2021/10/20 11:52:42;;;;;;;10.98;6.72;;;18.10;44.30;;;;;;4973243;28;20816;-74
2021/10/20 11:55:12;;;;;;;12.82;6.85;;;18.40;43.20;;;;;;4978114;28;20418;-75
2021/10/20 11:57:43;;;;;;;15.52;7.75;;;18.60;40.90;;;;;;4972980;28;20400;-74
2021/10/20 12:00:09;;;;;;;16.20;8.20;;;18.80;40.30;;;;;;4973364;28;20451;-76
2021/10/20 12:02:35;;;;;;;10.27;6.80;;;19.00;38.40;;;;;;4972468;28;20454;-76
2021/10/20 12:05:01;;;;;;;9.13;7.30;;;19.10;38.80;;;;;;4970948;28;20392;-75
2021/10/20 12:07:31;;;;;;;8.63;7.13;;;19.30;37.50;;;;;;4972783;28;20889;-74
2021/10/20 12:10:00;;;;;;;18.17;7.73;;;19.40;36.70;;;;;;4973393;28;20388;-75
2021/10/20 12:12:26;;;;;;;11.10;7.70;;;19.70;36.40;;;;;;4973272;28;20753;-75
2021/10/20 12:14:58;;;;;;;13.10;7.07;;;19.70;35.80;;;;;;4973293;28;20451;-74
2021/10/20 12:17:28;;;;;;;13.87;7.80;;;19.80;35.50;;;;;;4973474;28;20881;-74
2021/10/20 12:20:00;;;;;;;11.07;7.10;;;19.80;35.40;;;;;;4973428;28;20424;-75
2021/10/20 12:22:29;;;;;;;9.05;6.63;;;19.70;36.00;;;;;;4966482;28;20460;-75
2021/10/20 12:24:59;;;;;;;12.38;7.32;;;19.60;35.90;;;;;;4968884;28;20435;-75
2021/10/20 12:27:25;;;;;;;13.30;7.05;;;19.50;36.70;;;;;;4972341;28;20392;-75
2021/10/20 12:29:56;;;;;;;10.57;7.00;;;19.50;37.10;;;;;;4971538;28;20426;-74
2021/10/20 12:32:24;;;;;;;10.07;7.35;;;19.40;37.00;;;;;;4971453;28;20435;-75
2021/10/20 12:34:56;;;;;;;11.45;6.90;;;19.20;37.80;;;;;;4970473;28;20411;-75
2021/10/20 12:37:28;;;;;;;12.15;7.47;;;19.00;38.50;;;;;;4972172;28;20400;-75